LROP/OTP METAR and TAF weather

Enter ICAO airport designator
Station Type Date Time Source
LROP METAR 2020/04/08 22:00 UTC NOAA

LROP 082200Z 19003KT CAVOK 08/M01 Q1025 NOSIG


Station Type Date Time Source
LROP Decoded METAR 2020/04/08 22:00 UTC NOAA

Bucuresti Otopeni, Romania (LROP) 44-33N 026-06E 95M
Apr 08, 2020 - 06:00 PM EDT / 2020.04.08 2200 UTC
Wind: from the S (190 degrees) at 3 MPH (3 KT):0
Visibility: greater than 7 mile(s):0
Temperature: 46 F (8 C)
Dew Point: 30 F (-1 C)
Relative Humidity: 52%
Pressure (altimeter): 30.27 in. Hg (1025 hPa)
ob: LROP 082200Z 19003KT CAVOK 08/M01 Q1025 NOSIG
cycle: 22

Station Type Date Time Source
LROP TAF 2020/04/08 18:33 UTC NOAA

TAF LROP 081700Z 0818/0918 VRB04KT CAVOK

Example: see airport list